sensor_id;sensor_type;location;lat;lon;timestamp;pressure;altitude;pressure_sealevel;temperature;humidity
15314;BME280;7757;52.626;4.746;2023-04-19T00:00:55;102729.47;;;16.70;57.15
15314;BME280;7757;52.626;4.746;2023-04-19T00:03:42;102716.41;;;16.59;56.40
15314;BME280;7757;52.626;4.746;2023-04-19T00:06:27;102746.34;;;16.72;56.87
15314;BME280;7757;52.626;4.746;2023-04-19T00:09:14;102745.13;;;16.74;56.50
15314;BME280;7757;52.626;4.746;2023-04-19T00:12:00;102728.81;;;16.68;56.40
15314;BME280;7757;52.626;4.746;2023-04-19T00:14:45;102737.22;;;16.73;56.02
15314;BME280;7757;52.626;4.746;2023-04-19T00:17:30;102724.31;;;16.60;57.04
15314;BME280;7757;52.626;4.746;2023-04-19T00:20:16;102744.00;;;16.69;57.06
15314;BME280;7757;52.626;4.746;2023-04-19T00:23:01;102745.84;;;16.68;56.50
15314;BME280;7757;52.626;4.746;2023-04-19T00:25:48;102744.84;;;16.69;57.26
15314;BME280;7757;52.626;4.746;2023-04-19T00:28:33;102746.88;;;16.67;56.64
15314;BME280;7757;52.626;4.746;2023-04-19T00:31:19;102742.19;;;16.61;56.99
15314;BME280;7757;52.626;4.746;2023-04-19T00:34:04;102750.81;;;16.65;57.16
15314;BME280;7757;52.626;4.746;2023-04-19T00:36:50;102752.66;;;16.64;57.18
15314;BME280;7757;52.626;4.746;2023-04-19T00:39:36;102749.47;;;16.61;57.11
15314;BME280;7757;52.626;4.746;2023-04-19T00:42:22;102757.22;;;16.64;57.17
15314;BME280;7757;52.626;4.746;2023-04-19T00:45:08;102751.97;;;16.62;56.38
15314;BME280;7757;52.626;4.746;2023-04-19T00:47:54;102741.72;;;16.58;56.55
15314;BME280;7757;52.626;4.746;2023-04-19T00:50:39;102755.03;;;16.59;57.06
15314;BME280;7757;52.626;4.746;2023-04-19T00:53:26;102743.41;;;16.59;56.26
15314;BME280;7757;52.626;4.746;2023-04-19T00:56:12;102743.56;;;16.57;57.26
15314;BME280;7757;52.626;4.746;2023-04-19T00:58:59;102738.16;;;16.57;56.25
15314;BME280;7757;52.626;4.746;2023-04-19T01:01:44;102733.13;;;16.54;56.32
15314;BME280;7757;52.626;4.746;2023-04-19T01:04:30;102741.22;;;16.54;56.32
15314;BME280;7757;52.626;4.746;2023-04-19T01:07:15;102725.91;;;16.47;57.01
15314;BME280;7757;52.626;4.746;2023-04-19T01:10:02;102726.06;;;16.45;56.46
15314;BME280;7757;52.626;4.746;2023-04-19T01:12:47;102738.69;;;16.53;57.11
15314;BME280;7757;52.626;4.746;2023-04-19T01:15:34;102733.44;;;16.51;56.60
15314;BME280;7757;52.626;4.746;2023-04-19T01:18:20;102738.19;;;16.49;56.42
15314;BME280;7757;52.626;4.746;2023-04-19T01:21:07;102735.31;;;16.51;56.42
15314;BME280;7757;52.626;4.746;2023-04-19T01:23:57;102733.63;;;16.50;56.81
15314;BME280;7757;52.626;4.746;2023-04-19T01:26:42;102712.78;;;16.36;57.14
15314;BME280;7757;52.626;4.746;2023-04-19T01:29:27;102729.59;;;16.46;57.37
15314;BME280;7757;52.626;4.746;2023-04-19T01:32:13;102727.09;;;16.44;56.75
15314;BME280;7757;52.626;4.746;2023-04-19T01:34:58;102724.19;;;16.46;56.47
15314;BME280;7757;52.626;4.746;2023-04-19T01:37:43;102716.66;;;16.41;56.70
15314;BME280;7757;52.626;4.746;2023-04-19T01:40:31;102723.34;;;16.45;56.90
15314;BME280;7757;52.626;4.746;2023-04-19T01:43:17;102709.78;;;16.31;56.66
15314;BME280;7757;52.626;4.746;2023-04-19T01:46:02;102722.69;;;16.43;57.04
15314;BME280;7757;52.626;4.746;2023-04-19T01:48:48;102732.50;;;16.44;56.49
15314;BME280;7757;52.626;4.746;2023-04-19T01:51:33;102729.31;;;16.41;56.78
15314;BME280;7757;52.626;4.746;2023-04-19T01:54:18;102734.50;;;16.42;56.46
15314;BME280;7757;52.626;4.746;2023-04-19T01:57:05;102728.63;;;16.39;56.60
15314;BME280;7757;52.626;4.746;2023-04-19T01:59:51;102727.97;;;16.37;56.46
15314;BME280;7757;52.626;4.746;2023-04-19T02:02:36;102721.06;;;16.34;57.04
15314;BME280;7757;52.626;4.746;2023-04-19T02:05:21;102727.13;;;16.36;56.29
15314;BME280;7757;52.626;4.746;2023-04-19T02:08:07;102726.28;;;16.36;56.91
15314;BME280;7757;52.626;4.746;2023-04-19T02:10:52;102726.63;;;16.33;56.59
15314;BME280;7757;52.626;4.746;2023-04-19T02:13:39;102730.84;;;16.35;56.41
15314;BME280;7757;52.626;4.746;2023-04-19T02:16:24;102713.47;;;16.30;56.38
15314;BME280;7757;52.626;4.746;2023-04-19T02:19:10;102705.94;;;16.25;57.14
15314;BME280;7757;52.626;4.746;2023-04-19T02:21:55;102727.66;;;16.32;56.62
15314;BME280;7757;52.626;4.746;2023-04-19T02:24:41;102714.16;;;16.32;56.48
15314;BME280;7757;52.626;4.746;2023-04-19T02:27:28;102715.53;;;16.28;56.86
15314;BME280;7757;52.626;4.746;2023-04-19T02:30:15;102718.22;;;16.28;56.65
15314;BME280;7757;52.626;4.746;2023-04-19T02:33:00;102724.47;;;16.28;56.94
15314;BME280;7757;52.626;4.746;2023-04-19T02:35:46;102725.47;;;16.27;57.22
15314;BME280;7757;52.626;4.746;2023-04-19T02:38:31;102723.47;;;16.29;56.63
15314;BME280;7757;52.626;4.746;2023-04-19T02:41:16;102728.38;;;16.26;57.18
15314;BME280;7757;52.626;4.746;2023-04-19T02:44:02;102730.41;;;16.24;57.14
15314;BME280;7757;52.626;4.746;2023-04-19T02:46:48;102734.78;;;16.25;56.62
15314;BME280;7757;52.626;4.746;2023-04-19T02:49:34;102730.41;;;16.24;57.21
15314;BME280;7757;52.626;4.746;2023-04-19T02:52:20;102739.34;;;16.24;57.04
15314;BME280;7757;52.626;4.746;2023-04-19T02:55:06;102737.84;;;16.22;56.97
15314;BME280;7757;52.626;4.746;2023-04-19T02:57:52;102734.28;;;16.21;56.53
15314;BME280;7757;52.626;4.746;2023-04-19T03:00:37;102733.63;;;16.19;56.66
15314;BME280;7757;52.626;4.746;2023-04-19T03:03:24;102737.19;;;16.19;57.21
15314;BME280;7757;52.626;4.746;2023-04-19T03:06:09;102731.78;;;16.19;56.59
15314;BME280;7757;52.626;4.746;2023-04-19T03:08:55;102724.03;;;16.16;57.17
15314;BME280;7757;52.626;4.746;2023-04-19T03:11:40;102730.94;;;16.19;56.69
15314;BME280;7757;52.626;4.746;2023-04-19T03:14:25;102724.88;;;16.17;57.07
15314;BME280;7757;52.626;4.746;2023-04-19T03:17:11;102728.59;;;16.16;56.98
15314;BME280;7757;52.626;4.746;2023-04-19T03:19:57;102732.13;;;16.16;56.59
15314;BME280;7757;52.626;4.746;2023-04-19T03:22:43;102735.84;;;16.15;56.79
15314;BME280;7757;52.626;4.746;2023-04-19T03:25:29;102724.72;;;16.10;57.17
15314;BME280;7757;52.626;4.746;2023-04-19T03:28:14;102720.00;;;16.12;56.34
15314;BME280;7757;52.626;4.746;2023-04-19T03:31:00;102727.09;;;16.13;57.12
15314;BME280;7757;52.626;4.746;2023-04-19T03:33:45;102714.13;;;16.09;56.48
15314;BME280;7757;52.626;4.746;2023-04-19T03:36:32;102721.38;;;16.08;56.65
15314;BME280;7757;52.626;4.746;2023-04-19T03:39:17;102712.78;;;16.05;57.28
15314;BME280;7757;52.626;4.746;2023-04-19T03:42:03;102711.28;;;16.02;57.10
15314;BME280;7757;52.626;4.746;2023-04-19T03:44:48;102716.34;;;16.05;56.51
15314;BME280;7757;52.626;4.746;2023-04-19T03:47:33;102719.38;;;16.02;56.68
15314;BME280;7757;52.626;4.746;2023-04-19T03:50:19;102726.09;;;16.06;57.19
15314;BME280;7757;52.626;4.746;2023-04-19T03:53:06;102723.75;;;16.03;57.25
15314;BME280;7757;52.626;4.746;2023-04-19T03:55:51;102728.13;;;16.04;56.45
15314;BME280;7757;52.626;4.746;2023-04-19T03:58:36;102724.78;;;16.02;57.08
15314;BME280;7757;52.626;4.746;2023-04-19T04:01:25;102724.94;;;16.01;56.35
15314;BME280;7757;52.626;4.746;2023-04-19T04:04:10;102717.69;;;16.01;57.08
15314;BME280;7757;52.626;4.746;2023-04-19T04:06:55;102721.41;;;16.00;56.30
15314;BME280;7757;52.626;4.746;2023-04-19T04:09:42;102715.19;;;16.00;57.27
15314;BME280;7757;52.626;4.746;2023-04-19T04:12:29;102719.72;;;15.99;57.14
15314;BME280;7757;52.626;4.746;2023-04-19T04:15:14;102715.34;;;15.98;57.08
15314;BME280;7757;52.626;4.746;2023-04-19T04:18:00;102720.94;;;15.97;56.20
15314;BME280;7757;52.626;4.746;2023-04-19T04:20:45;102721.75;;;15.97;56.81
15314;BME280;7757;52.626;4.746;2023-04-19T04:23:31;102724.63;;;15.96;56.61
15314;BME280;7757;52.626;4.746;2023-04-19T04:26:18;102726.69;;;15.94;56.57
15314;BME280;7757;52.626;4.746;2023-04-19T04:29:05;102716.56;;;15.88;57.21
15314;BME280;7757;52.626;4.746;2023-04-19T04:31:50;102726.69;;;15.94;56.15
15314;BME280;7757;52.626;4.746;2023-04-19T04:34:35;102725.97;;;15.92;57.01
15314;BME280;7757;52.626;4.746;2023-04-19T04:37:21;102732.06;;;15.94;57.10
15314;BME280;7757;52.626;4.746;2023-04-19T04:40:07;102732.22;;;15.92;57.21
15314;BME280;7757;52.626;4.746;2023-04-19T04:42:55;102730.38;;;15.93;56.32
15314;BME280;7757;52.626;4.746;2023-04-19T04:45:41;102715.88;;;15.86;56.85
15314;BME280;7757;52.626;4.746;2023-04-19T04:48:27;102727.69;;;15.93;56.43
15314;BME280;7757;52.626;4.746;2023-04-19T04:51:12;102731.38;;;15.92;56.73
15314;BME280;7757;52.626;4.746;2023-04-19T04:53:57;102738.13;;;15.96;56.82
15314;BME280;7757;52.626;4.746;2023-04-19T04:56:43;102734.28;;;15.90;56.63
15314;BME280;7757;52.626;4.746;2023-04-19T04:59:30;102740.16;;;15.94;56.22
15314;BME280;7757;52.626;4.746;2023-04-19T05:02:15;102732.22;;;15.92;56.28
15314;BME280;7757;52.626;4.746;2023-04-19T05:05:01;102739.63;;;15.98;56.48
15314;BME280;7757;52.626;4.746;2023-04-19T05:07:47;102750.63;;;15.97;55.99
15314;BME280;7757;52.626;4.746;2023-04-19T05:10:32;102740.16;;;15.94;56.00
15314;BME280;7757;52.626;4.746;2023-04-19T05:13:17;102747.56;;;16.00;56.86
15314;BME280;7757;52.626;4.746;2023-04-19T05:16:05;102734.41;;;15.97;56.69
15314;BME280;7757;52.626;4.746;2023-04-19T05:18:50;102745.69;;;16.00;55.88
15314;BME280;7757;52.626;4.746;2023-04-19T05:21:36;102734.22;;;15.98;55.90
15314;BME280;7757;52.626;4.746;2023-04-19T05:24:21;102747.56;;;16.00;55.56
15314;BME280;7757;52.626;4.746;2023-04-19T05:27:06;102750.88;;;16.10;55.51
15314;BME280;7757;52.626;4.746;2023-04-19T05:29:52;102748.50;;;16.15;56.22
15314;BME280;7757;52.626;4.746;2023-04-19T05:32:38;102753.72;;;16.16;56.12
15314;BME280;7757;52.626;4.746;2023-04-19T05:35:24;102758.03;;;16.34;55.05
15314;BME280;7757;52.626;4.746;2023-04-19T05:38:09;102755.75;;;16.45;55.26
15314;BME280;7757;52.626;4.746;2023-04-19T05:40:55;102754.91;;;16.53;54.46
15314;BME280;7757;52.626;4.746;2023-04-19T05:43:40;102753.31;;;16.66;54.55
15314;BME280;7757;52.626;4.746;2023-04-19T05:46:25;102750.72;;;16.73;54.61
15314;BME280;7757;52.626;4.746;2023-04-19T05:49:12;102749.09;;;16.87;54.24
15314;BME280;7757;52.626;4.746;2023-04-19T05:51:58;102760.69;;;16.95;53.97
15314;BME280;7757;52.626;4.746;2023-04-19T05:54:43;102759.97;;;17.01;53.90
15314;BME280;7757;52.626;4.746;2023-04-19T05:57:28;102760.56;;;17.11;53.55
15314;BME280;7757;52.626;4.746;2023-04-19T06:00:15;102765.00;;;17.27;53.25
15314;BME280;7757;52.626;4.746;2023-04-19T06:03:00;102768.94;;;17.39;52.52
15314;BME280;7757;52.626;4.746;2023-04-19T06:05:47;102772.00;;;17.59;51.96
15314;BME280;7757;52.626;4.746;2023-04-19T06:08:32;102780.41;;;17.78;51.52
15314;BME280;7757;52.626;4.746;2023-04-19T06:11:18;102770.41;;;17.94;51.70
15314;BME280;7757;52.626;4.746;2023-04-19T06:14:03;102779.00;;;18.12;51.35
15314;BME280;7757;52.626;4.746;2023-04-19T06:16:49;102786.28;;;18.26;51.16
15314;BME280;7757;52.626;4.746;2023-04-19T06:19:34;102776.91;;;18.28;51.07
15314;BME280;7757;52.626;4.746;2023-04-19T06:22:21;102783.66;;;18.32;51.22
15314;BME280;7757;52.626;4.746;2023-04-19T06:25:07;102783.06;;;18.52;51.04
15314;BME280;7757;52.626;4.746;2023-04-19T06:27:52;102788.56;;;18.58;50.51
15314;BME280;7757;52.626;4.746;2023-04-19T06:30:37;102790.97;;;18.68;51.14
15314;BME280;7757;52.626;4.746;2023-04-19T06:33:22;102780.84;;;18.76;50.61
15314;BME280;7757;52.626;4.746;2023-04-19T06:36:08;102783.91;;;18.88;50.45
15314;BME280;7757;52.626;4.746;2023-04-19T06:38:55;102788.03;;;19.05;50.32
15314;BME280;7757;52.626;4.746;2023-04-19T06:41:41;102785.63;;;19.17;50.10
15314;BME280;7757;52.626;4.746;2023-04-19T06:44:26;102788.41;;;19.23;49.82
15314;BME280;7757;52.626;4.746;2023-04-19T06:47:11;102785.81;;;19.36;49.74
15314;BME280;7757;52.626;4.746;2023-04-19T06:49:57;102783.50;;;19.33;49.77
15314;BME280;7757;52.626;4.746;2023-04-19T06:52:42;102792.53;;;19.40;49.88
15314;BME280;7757;52.626;4.746;2023-04-19T06:55:29;102791.38;;;19.49;49.61
15314;BME280;7757;52.626;4.746;2023-04-19T06:58:14;102792.00;;;19.52;49.69
15314;BME280;7757;52.626;4.746;2023-04-19T07:01:00;102793.34;;;19.62;49.41
15314;BME280;7757;52.626;4.746;2023-04-19T07:03:46;102788.78;;;19.69;49.03
15314;BME280;7757;52.626;4.746;2023-04-19T07:06:31;102790.72;;;19.75;48.96
15314;BME280;7757;52.626;4.746;2023-04-19T07:09:17;102791.59;;;19.82;49.27
15314;BME280;7757;52.626;4.746;2023-04-19T07:12:04;102793.53;;;19.88;49.01
15314;BME280;7757;52.626;4.746;2023-04-19T07:14:50;102797.31;;;19.94;48.69
15314;BME280;7757;52.626;4.746;2023-04-19T07:17:38;102782.88;;;19.87;48.60
15314;BME280;7757;52.626;4.746;2023-04-19T07:20:24;102773.91;;;19.93;48.47
15314;BME280;7757;52.626;4.746;2023-04-19T07:23:11;102790.50;;;20.04;48.52
15314;BME280;7757;52.626;4.746;2023-04-19T07:25:56;102788.59;;;20.05;48.56
15314;BME280;7757;52.626;4.746;2023-04-19T07:28:42;102789.03;;;20.09;48.39
15314;BME280;7757;52.626;4.746;2023-04-19T07:31:28;102786.09;;;20.03;48.34
15314;BME280;7757;52.626;4.746;2023-04-19T07:34:13;102793.22;;;20.11;48.42
15314;BME280;7757;52.626;4.746;2023-04-19T07:36:59;102788.69;;;20.18;48.35
15314;BME280;7757;52.626;4.746;2023-04-19T07:39:44;102794.09;;;20.18;48.24
15314;BME280;7757;52.626;4.746;2023-04-19T07:42:30;102788.91;;;20.23;48.11
15314;BME280;7757;52.626;4.746;2023-04-19T07:45:16;102779.00;;;20.09;48.25
15314;BME280;7757;52.626;4.746;2023-04-19T07:48:02;102775.94;;;20.19;47.95
15314;BME280;7757;52.626;4.746;2023-04-19T07:50:47;102782.91;;;20.28;48.42
15314;BME280;7757;52.626;4.746;2023-04-19T07:53:32;102792.97;;;20.40;47.51
15314;BME280;7757;52.626;4.746;2023-04-19T07:56:18;102778.97;;;20.43;48.15
15314;BME280;7757;52.626;4.746;2023-04-19T07:59:03;102789.28;;;20.61;47.17
15314;BME280;7757;52.626;4.746;2023-04-19T08:01:50;102797.28;;;20.69;46.84
15314;BME280;7757;52.626;4.746;2023-04-19T08:04:36;102793.09;;;20.80;46.92
15314;BME280;7757;52.626;4.746;2023-04-19T08:07:21;102794.78;;;20.94;46.43
15314;BME280;7757;52.626;4.746;2023-04-19T08:10:09;102800.06;;;21.02;46.17
15314;BME280;7757;52.626;4.746;2023-04-19T08:12:54;102798.00;;;21.10;46.05
15314;BME280;7757;52.626;4.746;2023-04-19T08:15:40;102796.59;;;20.54;47.63
15314;BME280;7757;52.626;4.746;2023-04-19T08:18:27;102805.06;;;20.31;48.19
15314;BME280;7757;52.626;4.746;2023-04-19T08:21:12;102798.75;;;20.24;47.95
15314;BME280;7757;52.626;4.746;2023-04-19T08:23:57;102795.41;;;20.22;47.83
15314;BME280;7757;52.626;4.746;2023-04-19T08:26:43;102800.16;;;20.20;48.34
15314;BME280;7757;52.626;4.746;2023-04-19T08:29:36;102790.09;;;20.14;47.96
15314;BME280;7757;52.626;4.746;2023-04-19T08:32:22;102787.81;;;20.18;47.61
15314;BME280;7757;52.626;4.746;2023-04-19T08:35:09;102783.44;;;20.17;48.19
15314;BME280;7757;52.626;4.746;2023-04-19T08:37:55;102792.63;;;20.16;47.88
15314;BME280;7757;52.626;4.746;2023-04-19T08:40:45;102791.97;;;20.14;47.21
15314;BME280;7757;52.626;4.746;2023-04-19T08:43:34;102786.75;;;20.12;47.81
15314;BME280;7757;52.626;4.746;2023-04-19T08:46:21;102786.94;;;20.11;47.44
15314;BME280;7757;52.626;4.746;2023-04-19T08:49:08;102779.19;;;20.08;48.04
15314;BME280;7757;52.626;4.746;2023-04-19T08:51:56;102786.31;;;20.09;47.47
15314;BME280;7757;52.626;4.746;2023-04-19T08:54:42;102772.06;;;20.00;47.90
15314;BME280;7757;52.626;4.746;2023-04-19T08:57:29;102771.22;;;19.99;47.44
15314;BME280;7757;52.626;4.746;2023-04-19T09:00:16;102756.38;;;19.95;47.02
15314;BME280;7757;52.626;4.746;2023-04-19T09:03:01;102770.59;;;19.97;47.49
15314;BME280;7757;52.626;4.746;2023-04-19T09:05:47;102776.66;;;19.99;47.48
15314;BME280;7757;52.626;4.746;2023-04-19T09:08:33;102762.63;;;19.96;47.21
15314;BME280;7757;52.626;4.746;2023-04-19T09:11:19;102766.41;;;19.95;47.10
15314;BME280;7757;52.626;4.746;2023-04-19T09:14:09;102772.25;;;19.92;47.37
15314;BME280;7757;52.626;4.746;2023-04-19T09:17:10;102766.16;;;19.90;47.11
15314;BME280;7757;52.626;4.746;2023-04-19T09:19:57;102771.78;;;19.88;47.41
15314;BME280;7757;52.626;4.746;2023-04-19T09:23:02;102769.06;;;19.88;47.11
15314;BME280;7757;52.626;4.746;2023-04-19T09:25:54;102761.31;;;19.85;47.14
15314;BME280;7757;52.626;4.746;2023-04-19T09:28:54;102768.19;;;19.81;47.60
15314;BME280;7757;52.626;4.746;2023-04-19T09:31:55;102765.69;;;19.80;47.58
15314;BME280;7757;52.626;4.746;2023-04-19T09:34:50;102757.50;;;19.73;47.51
15314;BME280;7757;52.626;4.746;2023-04-19T09:37:36;102756.88;;;19.71;48.07
15314;BME280;7757;52.626;4.746;2023-04-19T09:40:24;102761.63;;;19.69;47.77
15314;BME280;7757;52.626;4.746;2023-04-19T09:43:12;102759.75;;;19.63;47.63
15314;BME280;7757;52.626;4.746;2023-04-19T09:45:57;102762.84;;;19.60;47.94
15314;BME280;7757;52.626;4.746;2023-04-19T09:48:42;102743.81;;;19.54;48.37
15314;BME280;7757;52.626;4.746;2023-04-19T09:51:38;102751.72;;;19.55;48.05
15314;BME280;7757;52.626;4.746;2023-04-19T09:54:25;102743.97;;;19.52;47.91
15314;BME280;7757;52.626;4.746;2023-04-19T09:57:13;102738.31;;;19.47;48.66
15314;BME280;7757;52.626;4.746;2023-04-19T10:00:00;102745.44;;;19.48;48.39
15314;BME280;7757;52.626;4.746;2023-04-19T10:02:51;102745.63;;;19.46;48.72
15314;BME280;7757;52.626;4.746;2023-04-19T10:05:41;102759.59;;;19.43;48.46
15314;BME280;7757;52.626;4.746;2023-04-19T10:08:27;102730.97;;;19.41;48.48
15314;BME280;7757;52.626;4.746;2023-04-19T10:11:13;102744.91;;;19.38;48.27
15314;BME280;7757;52.626;4.746;2023-04-19T10:14:02;102748.22;;;19.33;48.79
15314;BME280;7757;52.626;4.746;2023-04-19T10:16:49;102742.34;;;19.30;48.74
15314;BME280;7757;52.626;4.746;2023-04-19T10:19:36;102734.38;;;19.28;48.50
15314;BME280;7757;52.626;4.746;2023-04-19T10:22:22;102745.00;;;19.23;48.66
15314;BME280;7757;52.626;4.746;2023-04-19T10:25:10;102730.75;;;19.15;48.91
15314;BME280;7757;52.626;4.746;2023-04-19T10:27:56;102720.22;;;19.05;48.81
15314;BME280;7757;52.626;4.746;2023-04-19T10:30:52;102747.41;;;19.12;49.12
15314;BME280;7757;52.626;4.746;2023-04-19T10:33:39;102737.78;;;19.09;49.17
15314;BME280;7757;52.626;4.746;2023-04-19T10:36:26;102741.06;;;19.05;48.76
15314;BME280;7757;52.626;4.746;2023-04-19T10:39:38;102738.97;;;19.00;49.20
15314;BME280;7757;52.626;4.746;2023-04-19T10:42:24;102733.72;;;18.99;49.12
15314;BME280;7757;52.626;4.746;2023-04-19T10:45:31;102745.41;;;18.99;49.27
15314;BME280;7757;52.626;4.746;2023-04-19T10:48:33;102730.19;;;18.98;49.27
15314;BME280;7757;52.626;4.746;2023-04-19T10:51:25;102739.53;;;18.95;49.39
15314;BME280;7757;52.626;4.746;2023-04-19T10:54:28;102732.63;;;18.93;49.29
15314;BME280;7757;52.626;4.746;2023-04-19T10:57:15;102725.53;;;18.92;49.55
15314;BME280;7757;52.626;4.746;2023-04-19T11:00:17;102729.28;;;18.91;49.29
15314;BME280;7757;52.626;4.746;2023-04-19T11:06:23;102714.25;;;18.88;49.54
15314;BME280;7757;52.626;4.746;2023-04-19T11:09:10;102715.25;;;18.87;49.73
15314;BME280;7757;52.626;4.746;2023-04-19T11:12:03;102708.19;;;18.86;49.74
15314;BME280;7757;52.626;4.746;2023-04-19T11:14:52;102701.06;;;18.85;49.84
15314;BME280;7757;52.626;4.746;2023-04-19T11:17:37;102685.13;;;18.76;49.37
15314;BME280;7757;52.626;4.746;2023-04-19T11:20:24;102696.88;;;18.83;49.82
15314;BME280;7757;52.626;4.746;2023-04-19T11:23:15;102707.91;;;18.81;49.87
15314;BME280;7757;52.626;4.746;2023-04-19T11:26:01;102691.00;;;18.79;49.77
15314;BME280;7757;52.626;4.746;2023-04-19T11:28:47;102698.13;;;18.80;49.96
15314;BME280;7757;52.626;4.746;2023-04-19T11:31:33;102693.91;;;18.78;49.71
15314;BME280;7757;52.626;4.746;2023-04-19T11:34:21;102694.75;;;18.78;49.72
15314;BME280;7757;52.626;4.746;2023-04-19T11:37:07;102691.41;;;18.76;50.05
15314;BME280;7757;52.626;4.746;2023-04-19T11:39:55;102681.56;;;18.75;49.71
15314;BME280;7757;52.626;4.746;2023-04-19T11:42:41;102674.88;;;18.71;49.83
15314;BME280;7757;52.626;4.746;2023-04-19T11:45:27;102670.28;;;18.72;49.94
15314;BME280;7757;52.626;4.746;2023-04-19T11:48:14;102682.16;;;18.71;49.79
15314;BME280;7757;52.626;4.746;2023-04-19T11:51:00;102668.16;;;18.67;50.11
15314;BME280;7757;52.626;4.746;2023-04-19T11:53:45;102668.81;;;18.69;49.91
15314;BME280;7757;52.626;4.746;2023-04-19T11:56:32;102664.22;;;18.70;49.83
15314;BME280;7757;52.626;4.746;2023-04-19T11:59:20;102660.66;;;18.69;49.75
15314;BME280;7757;52.626;4.746;2023-04-19T12:02:07;102664.44;;;18.68;49.77
15314;BME280;7757;52.626;4.746;2023-04-19T12:04:53;102658.16;;;18.68;49.34
15314;BME280;7757;52.626;4.746;2023-04-19T12:07:57;102670.03;;;18.67;49.68
15314;BME280;7757;52.626;4.746;2023-04-19T12:10:54;102651.38;;;18.57;49.65
15314;BME280;7757;52.626;4.746;2023-04-19T12:13:41;102648.94;;;18.62;49.67
15314;BME280;7757;52.626;4.746;2023-04-19T12:16:27;102655.84;;;18.65;49.88
15314;BME280;7757;52.626;4.746;2023-04-19T12:19:14;102655.00;;;18.64;49.79
15314;BME280;7757;52.626;4.746;2023-04-19T12:22:07;102647.88;;;18.63;49.77
15314;BME280;7757;52.626;4.746;2023-04-19T12:24:53;102644.16;;;18.64;49.68
15314;BME280;7757;52.626;4.746;2023-04-19T12:27:39;102646.88;;;18.64;49.59
15314;BME280;7757;52.626;4.746;2023-04-19T12:30:26;102646.22;;;18.62;49.50
15314;BME280;7757;52.626;4.746;2023-04-19T12:33:11;102642.28;;;18.65;49.54
15314;BME280;7757;52.626;4.746;2023-04-19T12:35:57;102634.16;;;18.65;49.68
15314;BME280;7757;52.626;4.746;2023-04-19T12:38:42;102644.63;;;18.68;49.69
15314;BME280;7757;52.626;4.746;2023-04-19T12:41:28;102626.66;;;18.67;49.90
15314;BME280;7757;52.626;4.746;2023-04-19T12:44:13;102628.34;;;18.68;49.84
15314;BME280;7757;52.626;4.746;2023-04-19T12:47:00;102634.63;;;18.68;49.65
15314;BME280;7757;52.626;4.746;2023-04-19T12:49:45;102615.81;;;18.67;49.76
15314;BME280;7757;52.626;4.746;2023-04-19T12:52:30;102607.69;;;18.67;49.68
15314;BME280;7757;52.626;4.746;2023-04-19T12:55:16;102616.44;;;18.69;49.61
15314;BME280;7757;52.626;4.746;2023-04-19T12:58:01;102614.16;;;18.66;49.32
15314;BME280;7757;52.626;4.746;2023-04-19T13:00:47;102609.13;;;18.63;49.83
15314;BME280;7757;52.626;4.746;2023-04-19T13:03:34;102592.28;;;18.67;49.81
15314;BME280;7757;52.626;4.746;2023-04-19T13:06:20;102606.84;;;18.66;49.38
15314;BME280;7757;52.626;4.746;2023-04-19T13:09:05;102604.34;;;18.65;49.60
15314;BME280;7757;52.626;4.746;2023-04-19T13:11:50;102594.13;;;18.67;49.94
15314;BME280;7757;52.626;4.746;2023-04-19T13:14:36;102585.56;;;18.63;50.06
15314;BME280;7757;52.626;4.746;2023-04-19T13:17:21;102574.72;;;18.63;49.61
15314;BME280;7757;52.626;4.746;2023-04-19T13:20:09;102584.34;;;18.66;49.48
15314;BME280;7757;52.626;4.746;2023-04-19T13:22:54;102566.00;;;18.68;49.27
15314;BME280;7757;52.626;4.746;2023-04-19T13:25:39;102563.47;;;18.60;49.23
15314;BME280;7757;52.626;4.746;2023-04-19T13:28:25;102570.59;;;18.67;49.14
15314;BME280;7757;52.626;4.746;2023-04-19T13:31:10;102582.44;;;18.66;49.21
15314;BME280;7757;52.626;4.746;2023-04-19T13:33:56;102560.78;;;18.66;49.15
15314;BME280;7757;52.626;4.746;2023-04-19T13:36:44;102551.00;;;18.65;49.46
15314;BME280;7757;52.626;4.746;2023-04-19T13:39:30;102552.84;;;18.65;49.76
15314;BME280;7757;52.626;4.746;2023-04-19T13:42:16;102561.63;;;18.67;49.32
15314;BME280;7757;52.626;4.746;2023-04-19T13:45:02;102551.41;;;18.69;49.30
15314;BME280;7757;52.626;4.746;2023-04-19T13:47:48;102549.53;;;18.69;49.54
15314;BME280;7757;52.626;4.746;2023-04-19T13:50:33;102546.81;;;18.69;49.24
15314;BME280;7757;52.626;4.746;2023-04-19T13:53:21;102541.41;;;18.69;49.36
15314;BME280;7757;52.626;4.746;2023-04-19T13:56:06;102534.75;;;18.72;49.12
15314;BME280;7757;52.626;4.746;2023-04-19T13:58:53;102533.94;;;18.71;49.38
15314;BME280;7757;52.626;4.746;2023-04-19T14:01:39;102535.13;;;18.69;49.26
15314;BME280;7757;52.626;4.746;2023-04-19T14:04:24;102543.72;;;18.72;49.16
15314;BME280;7757;52.626;4.746;2023-04-19T14:07:10;102530.56;;;18.69;49.26
15314;BME280;7757;52.626;4.746;2023-04-19T14:09:56;102534.56;;;18.73;49.29
15314;BME280;7757;52.626;4.746;2023-04-19T14:12:42;102546.88;;;18.76;48.97
15314;BME280;7757;52.626;4.746;2023-04-19T14:15:28;102537.50;;;18.78;49.12
15314;BME280;7757;52.626;4.746;2023-04-19T14:18:13;102528.97;;;18.81;49.21
15314;BME280;7757;52.626;4.746;2023-04-19T14:20:58;102513.78;;;18.80;49.11
15314;BME280;7757;52.626;4.746;2023-04-19T14:23:44;102517.94;;;18.83;49.12
15314;BME280;7757;52.626;4.746;2023-04-19T14:26:31;102518.13;;;18.81;49.27
15314;BME280;7757;52.626;4.746;2023-04-19T14:29:16;102504.41;;;18.83;49.12
15314;BME280;7757;52.626;4.746;2023-04-19T14:32:02;102505.25;;;18.83;49.10
15314;BME280;7757;52.626;4.746;2023-04-19T14:34:47;102494.75;;;18.74;48.90
15314;BME280;7757;52.626;4.746;2023-04-19T14:37:33;102512.13;;;18.86;49.18
15314;BME280;7757;52.626;4.746;2023-04-19T14:40:18;102498.34;;;18.87;48.51
15314;BME280;7757;52.626;4.746;2023-04-19T14:43:05;102488.97;;;18.90;48.95
15314;BME280;7757;52.626;4.746;2023-04-19T14:45:50;102490.03;;;18.89;48.88